sensor_id;sensor_type;location;lat;lon;timestamp;pressure;altitude;pressure_sealevel;temperature;humidity
28797;BME280;24974;54.444;18.560;2023-04-22T00:01:01;101486.38;;;8.96;43.97
28797;BME280;24974;54.444;18.560;2023-04-22T00:03:32;101494.03;;;9.10;43.87
28797;BME280;24974;54.444;18.560;2023-04-22T00:06:03;101489.13;;;9.07;42.88
28797;BME280;24974;54.444;18.560;2023-04-22T00:08:34;101492.34;;;9.19;43.68
28797;BME280;24974;54.444;18.560;2023-04-22T00:11:05;101485.69;;;8.50;44.65
28797;BME280;24974;54.444;18.560;2023-04-22T00:13:36;101484.84;;;8.50;44.56
28797;BME280;24974;54.444;18.560;2023-04-22T00:16:07;101471.72;;;8.52;44.63
28797;BME280;24974;54.444;18.560;2023-04-22T00:18:37;101479.66;;;8.43;44.64
28797;BME280;24974;54.444;18.560;2023-04-22T00:21:08;101482.13;;;8.39;44.85
28797;BME280;24974;54.444;18.560;2023-04-22T00:23:39;101478.84;;;8.27;45.04
28797;BME280;24974;54.444;18.560;2023-04-22T00:26:10;101469.25;;;7.94;45.61
28797;BME280;24974;54.444;18.560;2023-04-22T00:28:42;101473.91;;;8.29;45.01
28797;BME280;24974;54.444;18.560;2023-04-22T00:31:13;101478.00;;;8.32;45.00
28797;BME280;24974;54.444;18.560;2023-04-22T00:33:44;101475.28;;;8.27;45.19
28797;BME280;24974;54.444;18.560;2023-04-22T00:36:15;101472.25;;;7.88;45.98
28797;BME280;24974;54.444;18.560;2023-04-22T00:38:49;101469.50;;;8.33;45.68
28797;BME280;24974;54.444;18.560;2023-04-22T00:41:21;101464.59;;;7.95;46.04
28797;BME280;24974;54.444;18.560;2023-04-22T00:43:53;101464.03;;;7.82;46.82
28797;BME280;24974;54.444;18.560;2023-04-22T00:46:24;101458.56;;;8.18;45.88
28797;BME280;24974;54.444;18.560;2023-04-22T00:48:56;101457.47;;;8.34;45.43
28797;BME280;24974;54.444;18.560;2023-04-22T00:51:27;101454.44;;;8.16;46.03
28797;BME280;24974;54.444;18.560;2023-04-22T00:53:58;101455.53;;;8.25;45.67
28797;BME280;24974;54.444;18.560;2023-04-22T00:56:32;101448.16;;;8.10;46.13
28797;BME280;24974;54.444;18.560;2023-04-22T00:59:06;101455.03;;;8.02;45.93
28797;BME280;24974;54.444;18.560;2023-04-22T01:01:38;101450.88;;;8.15;45.84
28797;BME280;24974;54.444;18.560;2023-04-22T01:04:09;101447.06;;;7.96;46.30
28797;BME280;24974;54.444;18.560;2023-04-22T01:06:44;101448.16;;;7.90;46.90
28797;BME280;24974;54.444;18.560;2023-04-22T01:09:18;101442.66;;;8.10;46.35
28797;BME280;24974;54.444;18.560;2023-04-22T01:11:49;101451.41;;;8.32;45.90
28797;BME280;24974;54.444;18.560;2023-04-22T01:14:20;101452.25;;;8.18;46.49
28797;BME280;24974;54.444;18.560;2023-04-22T01:16:52;101451.44;;;8.22;46.66
28797;BME280;24974;54.444;18.560;2023-04-22T01:19:25;101443.50;;;8.21;46.66
28797;BME280;24974;54.444;18.560;2023-04-22T01:22:00;101450.63;;;8.06;46.74
28797;BME280;24974;54.444;18.560;2023-04-22T01:24:32;101447.63;;;8.03;47.56
28797;BME280;24974;54.444;18.560;2023-04-22T01:27:03;101447.34;;;7.94;47.82
28797;BME280;24974;54.444;18.560;2023-04-22T01:29:36;101449.25;;;7.78;48.13
28797;BME280;24974;54.444;18.560;2023-04-22T01:32:07;101453.06;;;7.62;48.85
28797;BME280;24974;54.444;18.560;2023-04-22T01:34:38;101459.41;;;8.03;48.17
28797;BME280;24974;54.444;18.560;2023-04-22T01:37:09;101455.28;;;7.96;48.64
28797;BME280;24974;54.444;18.560;2023-04-22T01:39:40;101454.72;;;8.24;48.33
28797;BME280;24974;54.444;18.560;2023-04-22T01:42:11;101458.84;;;8.11;48.56
28797;BME280;24974;54.444;18.560;2023-04-22T01:44:43;101454.47;;;7.95;48.48
28797;BME280;24974;54.444;18.560;2023-04-22T01:47:14;101457.75;;;8.02;48.41
28797;BME280;24974;54.444;18.560;2023-04-22T01:49:44;101453.09;;;7.98;48.60
28797;BME280;24974;54.444;18.560;2023-04-22T01:52:16;101445.97;;;8.07;48.20
28797;BME280;24974;54.444;18.560;2023-04-22T01:54:47;101455.00;;;7.82;49.57
28797;BME280;24974;54.444;18.560;2023-04-22T01:57:18;101449.00;;;8.10;48.25
28797;BME280;24974;54.444;18.560;2023-04-22T01:59:49;101451.97;;;8.09;48.05
28797;BME280;24974;54.444;18.560;2023-04-22T02:02:20;101452.53;;;7.70;49.24
28797;BME280;24974;54.444;18.560;2023-04-22T02:04:50;101451.97;;;7.83;49.38
28797;BME280;24974;54.444;18.560;2023-04-22T02:07:22;101453.38;;;7.96;49.14
28797;BME280;24974;54.444;18.560;2023-04-22T02:09:53;101453.91;;;8.13;49.31
28797;BME280;24974;54.444;18.560;2023-04-22T02:12:23;101443.22;;;8.07;49.43
28797;BME280;24974;54.444;18.560;2023-04-22T02:14:54;101440.22;;;7.93;49.64
28797;BME280;24974;54.444;18.560;2023-04-22T02:17:25;101441.59;;;8.01;49.13
28797;BME280;24974;54.444;18.560;2023-04-22T02:19:57;101442.97;;;8.13;48.72
28797;BME280;24974;54.444;18.560;2023-04-22T02:22:28;101440.78;;;7.80;49.46
28797;BME280;24974;54.444;18.560;2023-04-22T02:24:59;101440.50;;;8.07;49.39
28797;BME280;24974;54.444;18.560;2023-04-22T02:27:30;101438.00;;;7.70;49.28
28797;BME280;24974;54.444;18.560;2023-04-22T02:30:02;101437.75;;;8.02;49.31
28797;BME280;24974;54.444;18.560;2023-04-22T02:32:34;101436.09;;;7.75;49.44
28797;BME280;24974;54.444;18.560;2023-04-22T02:35:10;101431.44;;;7.61;49.54
28797;BME280;24974;54.444;18.560;2023-04-22T02:37:41;101426.78;;;7.56;49.41
28797;BME280;24974;54.444;18.560;2023-04-22T02:40:12;101427.63;;;7.77;49.36
28797;BME280;24974;54.444;18.560;2023-04-22T02:42:43;101433.63;;;7.69;49.41
28797;BME280;24974;54.444;18.560;2023-04-22T02:45:14;101433.88;;;7.52;49.96
28797;BME280;24974;54.444;18.560;2023-04-22T02:47:46;101434.44;;;7.49;50.41
28797;BME280;24974;54.444;18.560;2023-04-22T02:50:18;101429.72;;;7.29;50.72
28797;BME280;24974;54.444;18.560;2023-04-22T02:52:50;101426.25;;;7.54;50.87
28797;BME280;24974;54.444;18.560;2023-04-22T02:55:21;101430.63;;;7.85;49.97
28797;BME280;24974;54.444;18.560;2023-04-22T02:57:54;101421.84;;;7.58;50.43
28797;BME280;24974;54.444;18.560;2023-04-22T03:00:25;101425.41;;;7.69;50.81
28797;BME280;24974;54.444;18.560;2023-04-22T03:02:56;101427.91;;;7.70;50.85
28797;BME280;24974;54.444;18.560;2023-04-22T03:05:32;101423.50;;;7.49;50.94
28797;BME280;24974;54.444;18.560;2023-04-22T03:08:04;101426.19;;;7.44;51.54
28797;BME280;24974;54.444;18.560;2023-04-22T03:10:35;101426.50;;;7.68;50.70
28797;BME280;24974;54.444;18.560;2023-04-22T03:13:06;101426.75;;;7.31;51.40
28797;BME280;24974;54.444;18.560;2023-04-22T03:15:39;101422.66;;;7.43;51.27
28797;BME280;24974;54.444;18.560;2023-04-22T03:18:10;101427.88;;;7.55;51.49
28797;BME280;24974;54.444;18.560;2023-04-22T03:20:41;101427.59;;;7.56;51.22
28797;BME280;24974;54.444;18.560;2023-04-22T03:23:12;101420.75;;;7.69;51.55
28797;BME280;24974;54.444;18.560;2023-04-22T03:25:44;101419.63;;;7.35;52.25
28797;BME280;24974;54.444;18.560;2023-04-22T03:28:15;101423.94;;;7.20;52.73
28797;BME280;24974;54.444;18.560;2023-04-22T03:30:46;101419.88;;;7.28;52.38
28797;BME280;24974;54.444;18.560;2023-04-22T03:33:18;101409.25;;;7.32;52.35
28797;BME280;24974;54.444;18.560;2023-04-22T03:35:56;101411.69;;;7.33;52.91
28797;BME280;24974;54.444;18.560;2023-04-22T03:38:28;101410.63;;;7.39;52.39
28797;BME280;24974;54.444;18.560;2023-04-22T03:40:59;101410.31;;;7.25;52.64
28797;BME280;24974;54.444;18.560;2023-04-22T03:43:46;101416.97;;;7.96;51.49
28797;BME280;24974;54.444;18.560;2023-04-22T03:46:17;101408.75;;;7.91;51.35
28797;BME280;24974;54.444;18.560;2023-04-22T03:48:56;101416.66;;;8.23;50.85
28797;BME280;24974;54.444;18.560;2023-04-22T03:51:31;101426.25;;;8.00;51.32
28797;BME280;24974;54.444;18.560;2023-04-22T03:54:06;101416.09;;;8.41;50.58
28797;BME280;24974;54.444;18.560;2023-04-22T03:56:40;101412.00;;;8.08;51.26
28797;BME280;24974;54.444;18.560;2023-04-22T03:59:10;101408.44;;;8.18;51.34
28797;BME280;24974;54.444;18.560;2023-04-22T04:01:41;101406.84;;;7.96;52.13
28797;BME280;24974;54.444;18.560;2023-04-22T04:04:13;101403.78;;;8.23;51.48
28797;BME280;24974;54.444;18.560;2023-04-22T04:07:06;101407.06;;;8.40;51.15
28797;BME280;24974;54.444;18.560;2023-04-22T04:09:37;101413.00;;;8.73;50.37
28797;BME280;24974;54.444;18.560;2023-04-22T04:12:07;101407.53;;;8.73;50.34
28797;BME280;24974;54.444;18.560;2023-04-22T04:14:43;101404.78;;;8.78;50.70
28797;BME280;24974;54.444;18.560;2023-04-22T04:17:16;101400.91;;;8.84;50.64
28797;BME280;24974;54.444;18.560;2023-04-22T04:19:48;101402.56;;;8.80;51.59
28797;BME280;24974;54.444;18.560;2023-04-22T04:22:18;101401.38;;;9.02;50.88
28797;BME280;24974;54.444;18.560;2023-04-22T04:24:57;101404.72;;;8.99;51.53
28797;BME280;24974;54.444;18.560;2023-04-22T04:27:32;101398.44;;;9.37;50.58
28797;BME280;24974;54.444;18.560;2023-04-22T04:30:05;101388.94;;;9.64;49.56
28797;BME280;24974;54.444;18.560;2023-04-22T04:32:44;101399.75;;;9.84;49.55
28797;BME280;24974;54.444;18.560;2023-04-22T04:35:17;101397.16;;;9.98;49.35
28797;BME280;24974;54.444;18.560;2023-04-22T04:37:54;101396.91;;;10.28;49.02
28797;BME280;24974;54.444;18.560;2023-04-22T04:40:25;101393.94;;;10.73;48.14
28797;BME280;24974;54.444;18.560;2023-04-22T04:43:12;101397.69;;;11.25;46.58
28797;BME280;24974;54.444;18.560;2023-04-22T04:46:06;101398.09;;;11.69;45.78
28797;BME280;24974;54.444;18.560;2023-04-22T04:48:40;101393.59;;;11.60;45.78
28797;BME280;24974;54.444;18.560;2023-04-22T04:51:12;101393.00;;;11.82;45.56
28797;BME280;24974;54.444;18.560;2023-04-22T04:53:54;101394.19;;;12.08;44.94
28797;BME280;24974;54.444;18.560;2023-04-22T04:56:25;101396.59;;;12.28;44.71
28797;BME280;24974;54.444;18.560;2023-04-22T04:58:56;101398.00;;;12.12;44.91
28797;BME280;24974;54.444;18.560;2023-04-22T05:01:30;101394.81;;;12.19;44.73
28797;BME280;24974;54.444;18.560;2023-04-22T05:04:06;101392.50;;;12.26;44.85
28797;BME280;24974;54.444;18.560;2023-04-22T05:06:37;101392.22;;;12.41;44.61
28797;BME280;24974;54.444;18.560;2023-04-22T05:09:08;101387.13;;;12.48;44.41
28797;BME280;24974;54.444;18.560;2023-04-22T05:11:40;101387.63;;;12.64;44.09
28797;BME280;24974;54.444;18.560;2023-04-22T05:14:22;101381.00;;;12.79;43.76
28797;BME280;24974;54.444;18.560;2023-04-22T05:16:53;101393.34;;;12.81;44.07
28797;BME280;24974;54.444;18.560;2023-04-22T05:19:24;101383.00;;;13.28;43.27
28797;BME280;24974;54.444;18.560;2023-04-22T05:21:57;101390.00;;;13.48;42.69
28797;BME280;24974;54.444;18.560;2023-04-22T05:24:28;101392.84;;;13.57;42.31
28797;BME280;24974;54.444;18.560;2023-04-22T05:27:02;101387.81;;;13.59;42.55
28797;BME280;24974;54.444;18.560;2023-04-22T05:29:33;101382.28;;;13.59;42.80
28797;BME280;24974;54.444;18.560;2023-04-22T05:32:07;101382.41;;;13.76;42.32
28797;BME280;24974;54.444;18.560;2023-04-22T05:34:38;101383.78;;;13.87;42.03
28797;BME280;24974;54.444;18.560;2023-04-22T05:37:09;101386.72;;;14.13;41.93
28797;BME280;24974;54.444;18.560;2023-04-22T05:39:43;101385.16;;;14.21;42.34
28797;BME280;24974;54.444;18.560;2023-04-22T05:42:15;101382.75;;;14.59;41.80
28797;BME280;24974;54.444;18.560;2023-04-22T05:44:47;101384.09;;;14.70;41.69
28797;BME280;24974;54.444;18.560;2023-04-22T05:47:18;101384.03;;;14.53;41.79
28797;BME280;24974;54.444;18.560;2023-04-22T05:49:49;101383.59;;;14.06;43.52
28797;BME280;24974;54.444;18.560;2023-04-22T05:52:38;101394.91;;;13.51;45.19
28797;BME280;24974;54.444;18.560;2023-04-22T05:55:17;101388.94;;;13.08;46.43
28797;BME280;24974;54.444;18.560;2023-04-22T05:57:49;101391.03;;;13.38;45.45
28797;BME280;24974;54.444;18.560;2023-04-22T06:00:44;101390.69;;;13.04;45.53
28797;BME280;24974;54.444;18.560;2023-04-22T06:03:39;101386.34;;;13.61;44.69
28797;BME280;24974;54.444;18.560;2023-04-22T06:06:09;101386.84;;;13.63;44.58
28797;BME280;24974;54.444;18.560;2023-04-22T06:08:40;101388.00;;;13.85;44.16
28797;BME280;24974;54.444;18.560;2023-04-22T06:11:11;101385.97;;;14.21;42.98
28797;BME280;24974;54.444;18.560;2023-04-22T06:13:42;101387.44;;;14.27;43.06
28797;BME280;24974;54.444;18.560;2023-04-22T06:16:14;101382.97;;;13.87;44.06
28797;BME280;24974;54.444;18.560;2023-04-22T06:18:45;101380.50;;;14.08;43.17
28797;BME280;24974;54.444;18.560;2023-04-22T06:21:16;101378.25;;;13.87;43.10
28797;BME280;24974;54.444;18.560;2023-04-22T06:23:47;101385.06;;;13.81;43.59
28797;BME280;24974;54.444;18.560;2023-04-22T06:26:18;101383.81;;;13.65;44.67
28797;BME280;24974;54.444;18.560;2023-04-22T06:28:51;101382.09;;;13.78;44.26
28797;BME280;24974;54.444;18.560;2023-04-22T06:31:23;101383.28;;;14.08;43.85
28797;BME280;24974;54.444;18.560;2023-04-22T06:33:54;101381.16;;;14.36;43.17
28797;BME280;24974;54.444;18.560;2023-04-22T06:36:26;101386.56;;;13.65;44.80
28797;BME280;24974;54.444;18.560;2023-04-22T06:39:04;101386.56;;;13.65;44.20
28797;BME280;24974;54.444;18.560;2023-04-22T06:41:44;101381.91;;;13.74;44.00
28797;BME280;24974;54.444;18.560;2023-04-22T06:44:38;101377.59;;;13.82;43.96
28797;BME280;24974;54.444;18.560;2023-04-22T06:47:29;101380.78;;;13.97;43.05
28797;BME280;24974;54.444;18.560;2023-04-22T06:50:10;101376.69;;;14.26;42.23
28797;BME280;24974;54.444;18.560;2023-04-22T06:52:48;101376.13;;;14.07;42.34
28797;BME280;24974;54.444;18.560;2023-04-22T06:55:19;101381.47;;;14.34;41.96
28797;BME280;24974;54.444;18.560;2023-04-22T06:57:50;101374.50;;;14.37;42.10
28797;BME280;24974;54.444;18.560;2023-04-22T07:00:21;101376.84;;;14.21;42.99
28797;BME280;24974;54.444;18.560;2023-04-22T07:02:52;101379.75;;;14.16;43.54
28797;BME280;24974;54.444;18.560;2023-04-22T07:05:23;101381.78;;;14.33;44.29
28797;BME280;24974;54.444;18.560;2023-04-22T07:07:54;101380.47;;;14.30;43.99
28797;BME280;24974;54.444;18.560;2023-04-22T07:10:27;101384.72;;;14.67;43.48
28797;BME280;24974;54.444;18.560;2023-04-22T07:13:17;101374.69;;;14.80;42.76
28797;BME280;24974;54.444;18.560;2023-04-22T07:15:48;101381.63;;;14.60;42.87
28797;BME280;24974;54.444;18.560;2023-04-22T07:18:18;101387.44;;;14.59;43.02
28797;BME280;24974;54.444;18.560;2023-04-22T07:20:49;101374.81;;;14.75;41.82
28797;BME280;24974;54.444;18.560;2023-04-22T07:23:20;101378.31;;;14.49;42.64
28797;BME280;24974;54.444;18.560;2023-04-22T07:25:51;101369.47;;;14.39;42.55
28797;BME280;24974;54.444;18.560;2023-04-22T07:28:22;101370.38;;;14.57;42.07
28797;BME280;24974;54.444;18.560;2023-04-22T07:30:53;101362.84;;;14.48;42.54
28797;BME280;24974;54.444;18.560;2023-04-22T07:33:24;101364.94;;;14.91;41.92
28797;BME280;24974;54.444;18.560;2023-04-22T07:35:55;101362.69;;;14.93;41.17
28797;BME280;24974;54.444;18.560;2023-04-22T07:38:26;101362.66;;;14.85;41.10
28797;BME280;24974;54.444;18.560;2023-04-22T07:40:56;101359.41;;;14.91;40.89
28797;BME280;24974;54.444;18.560;2023-04-22T07:43:27;101360.56;;;14.99;40.57
28797;BME280;24974;54.444;18.560;2023-04-22T07:45:58;101356.03;;;15.20;40.52
28797;BME280;24974;54.444;18.560;2023-04-22T07:48:29;101359.44;;;15.95;39.10
28797;BME280;24974;54.444;18.560;2023-04-22T07:51:00;101358.00;;;15.63;39.80
28797;BME280;24974;54.444;18.560;2023-04-22T07:53:31;101359.63;;;15.55;40.17
28797;BME280;24974;54.444;18.560;2023-04-22T07:56:03;101359.13;;;15.79;39.56
28797;BME280;24974;54.444;18.560;2023-04-22T07:58:34;101360.09;;;15.92;40.38
28797;BME280;24974;54.444;18.560;2023-04-22T08:01:05;101358.28;;;16.05;39.24
28797;BME280;24974;54.444;18.560;2023-04-22T08:03:35;101360.75;;;15.98;40.00
28797;BME280;24974;54.444;18.560;2023-04-22T08:06:06;101361.69;;;16.10;40.12
28797;BME280;24974;54.444;18.560;2023-04-22T08:08:37;101358.75;;;16.15;40.03
28797;BME280;24974;54.444;18.560;2023-04-22T08:11:08;101362.53;;;16.02;40.14
28797;BME280;24974;54.444;18.560;2023-04-22T08:13:39;101355.78;;;16.29;39.84
28797;BME280;24974;54.444;18.560;2023-04-22T08:16:09;101354.75;;;16.34;39.62
28797;BME280;24974;54.444;18.560;2023-04-22T08:18:40;101355.13;;;16.23;40.23
28797;BME280;24974;54.444;18.560;2023-04-22T08:21:11;101355.06;;;16.79;39.52
28797;BME280;24974;54.444;18.560;2023-04-22T08:23:42;101356.34;;;16.43;40.15
28797;BME280;24974;54.444;18.560;2023-04-22T08:26:13;101362.06;;;16.47;40.67
28797;BME280;24974;54.444;18.560;2023-04-22T08:28:46;101354.56;;;16.47;40.89
28797;BME280;24974;54.444;18.560;2023-04-22T08:31:17;101360.78;;;16.36;41.57
28797;BME280;24974;54.444;18.560;2023-04-22T08:33:47;101365.03;;;16.33;43.18
28797;BME280;24974;54.444;18.560;2023-04-22T08:36:20;101360.44;;;16.46;40.08
28797;BME280;24974;54.444;18.560;2023-04-22T08:38:53;101363.50;;;16.06;42.25
28797;BME280;24974;54.444;18.560;2023-04-22T08:41:26;101355.94;;;16.71;39.94
28797;BME280;24974;54.444;18.560;2023-04-22T08:43:58;101355.78;;;16.29;39.41
28797;BME280;24974;54.444;18.560;2023-04-22T08:46:30;101361.50;;;16.24;38.98
28797;BME280;24974;54.444;18.560;2023-04-22T08:49:01;101368.50;;;16.68;38.82
28797;BME280;24974;54.444;18.560;2023-04-22T08:51:34;101359.44;;;16.89;39.01
28797;BME280;24974;54.444;18.560;2023-04-22T08:54:05;101366.06;;;16.29;40.98
28797;BME280;24974;54.444;18.560;2023-04-22T08:56:41;101365.34;;;15.59;41.18
28797;BME280;24974;54.444;18.560;2023-04-22T08:59:13;101362.94;;;16.30;39.65
28797;BME280;24974;54.444;18.560;2023-04-22T09:01:50;101360.00;;;16.27;40.03
28797;BME280;24974;54.444;18.560;2023-04-22T09:04:21;101370.09;;;16.40;40.05
28797;BME280;24974;54.444;18.560;2023-04-22T09:06:52;101368.22;;;16.14;39.24
28797;BME280;24974;54.444;18.560;2023-04-22T09:09:23;101362.75;;;16.35;39.09
28797;BME280;24974;54.444;18.560;2023-04-22T09:11:54;101364.06;;;16.38;40.10
28797;BME280;24974;54.444;18.560;2023-04-22T09:14:25;101361.00;;;16.22;40.38
28797;BME280;24974;54.444;18.560;2023-04-22T09:16:57;101363.97;;;16.55;40.05
28797;BME280;24974;54.444;18.560;2023-04-22T09:19:27;101358.84;;;16.74;39.77
28797;BME280;24974;54.444;18.560;2023-04-22T09:21:58;101357.91;;;16.23;41.49
28797;BME280;24974;54.444;18.560;2023-04-22T09:24:31;101360.63;;;16.79;39.63
28797;BME280;24974;54.444;18.560;2023-04-22T09:27:02;101363.25;;;17.05;38.50
28797;BME280;24974;54.444;18.560;2023-04-22T09:29:33;101359.19;;;16.73;39.20
28797;BME280;24974;54.444;18.560;2023-04-22T09:32:10;101353.97;;;16.71;37.73
28797;BME280;24974;54.444;18.560;2023-04-22T09:34:55;101355.31;;;16.95;38.28
28797;BME280;24974;54.444;18.560;2023-04-22T09:37:27;101350.47;;;16.83;37.98
28797;BME280;24974;54.444;18.560;2023-04-22T09:39:58;101352.69;;;16.69;38.81
28797;BME280;24974;54.444;18.560;2023-04-22T09:42:29;101354.72;;;17.10;38.72
28797;BME280;24974;54.444;18.560;2023-04-22T09:45:00;101358.75;;;16.92;39.28
28797;BME280;24974;54.444;18.560;2023-04-22T09:47:34;101360.50;;;17.26;38.75
28797;BME280;24974;54.444;18.560;2023-04-22T09:50:06;101355.19;;;17.12;39.89
28797;BME280;24974;54.444;18.560;2023-04-22T09:52:37;101353.09;;;17.09;38.98
28797;BME280;24974;54.444;18.560;2023-04-22T09:55:08;101352.59;;;17.70;38.68
28797;BME280;24974;54.444;18.560;2023-04-22T09:57:39;101352.22;;;18.50;37.10
28797;BME280;24974;54.444;18.560;2023-04-22T10:00:12;101343.59;;;18.18;37.01
28797;BME280;24974;54.444;18.560;2023-04-22T10:02:43;101347.59;;;17.96;36.90
28797;BME280;24974;54.444;18.560;2023-04-22T10:05:14;101346.09;;;18.56;36.41
28797;BME280;24974;54.444;18.560;2023-04-22T10:07:45;101340.66;;;18.72;36.17
28797;BME280;24974;54.444;18.560;2023-04-22T10:10:16;101337.09;;;19.24;36.89
28797;BME280;24974;54.444;18.560;2023-04-22T10:12:47;101330.16;;;19.18;35.90
28797;BME280;24974;54.444;18.560;2023-04-22T10:15:18;101331.88;;;19.22;35.98
28797;BME280;24974;54.444;18.560;2023-04-22T10:17:51;101332.59;;;19.60;36.58
28797;BME280;24974;54.444;18.560;2023-04-22T10:20:23;101321.44;;;19.47;35.31
28797;BME280;24974;54.444;18.560;2023-04-22T10:22:56;101325.97;;;19.80;34.68
28797;BME280;24974;54.444;18.560;2023-04-22T10:25:27;101323.13;;;20.87;32.65
28797;BME280;24974;54.444;18.560;2023-04-22T10:28:06;101315.03;;;20.82;32.25
28797;BME280;24974;54.444;18.560;2023-04-22T10:30:38;101319.25;;;21.46;32.23
28797;BME280;24974;54.444;18.560;2023-04-22T10:36:14;101309.50;;;21.78;31.08
28797;BME280;24974;54.444;18.560;2023-04-22T10:41:34;101298.88;;;21.88;30.73
28797;BME280;24974;54.444;18.560;2023-04-22T10:44:06;101295.66;;;22.81;29.96
28797;BME280;24974;54.444;18.560;2023-04-22T10:49:24;101294.97;;;21.31;31.78
28797;BME280;24974;54.444;18.560;2023-04-22T10:51:57;101287.88;;;21.56;32.08
28797;BME280;24974;54.444;18.560;2023-04-22T10:57:12;101283.31;;;22.32;30.65
28797;BME280;24974;54.444;18.560;2023-04-22T10:59:52;101284.03;;;21.84;30.72
28797;BME280;24974;54.444;18.560;2023-04-22T11:02:23;101286.75;;;22.49;30.38
28797;BME280;24974;54.444;18.560;2023-04-22T11:05:20;101289.72;;;21.48;32.21
28797;BME280;24974;54.444;18.560;2023-04-22T11:07:53;101280.44;;;22.29;30.27
28797;BME280;24974;54.444;18.560;2023-04-22T11:10:44;101288.69;;;21.99;31.05
28797;BME280;24974;54.444;18.560;2023-04-22T11:13:17;101278.53;;;21.68;31.56
28797;BME280;24974;54.444;18.560;2023-04-22T11:15:53;101274.09;;;22.09;31.85
28797;BME280;24974;54.444;18.560;2023-04-22T11:18:25;101273.81;;;21.72;31.31
28797;BME280;24974;54.444;18.560;2023-04-22T11:21:04;101279.75;;;22.36;31.25
28797;BME280;24974;54.444;18.560;2023-04-22T11:23:35;101283.34;;;22.36;30.96
28797;BME280;24974;54.444;18.560;2023-04-22T11:26:06;101273.19;;;22.51;31.88
28797;BME280;24974;54.444;18.560;2023-04-22T11:28:44;101274.78;;;21.60;32.54
28797;BME280;24974;54.444;18.560;2023-04-22T11:31:15;101269.31;;;22.32;32.22
28797;BME280;24974;54.444;18.560;2023-04-22T11:33:46;101274.75;;;22.75;31.37
28797;BME280;24974;54.444;18.560;2023-04-22T11:36:17;101261.09;;;21.74;33.21
28797;BME280;24974;54.444;18.560;2023-04-22T11:38:55;101263.66;;;22.06;32.12
28797;BME280;24974;54.444;18.560;2023-04-22T11:41:26;101261.88;;;21.75;33.20
28797;BME280;24974;54.444;18.560;2023-04-22T11:43:59;101258.38;;;22.50;32.14
28797;BME280;24974;54.444;18.560;2023-04-22T11:46:31;101253.75;;;22.12;32.76
28797;BME280;24974;54.444;18.560;2023-04-22T11:49:14;101248.31;;;21.54;33.26
28797;BME280;24974;54.444;18.560;2023-04-22T11:51:54;101251.94;;;21.77;33.12
28797;BME280;24974;54.444;18.560;2023-04-22T11:54:34;101241.25;;;21.83;32.85
28797;BME280;24974;54.444;18.560;2023-04-22T11:57:07;101253.94;;;22.23;32.48
28797;BME280;24974;54.444;18.560;2023-04-22T11:59:38;101247.22;;;22.27;32.58
28797;BME280;24974;54.444;18.560;2023-04-22T12:02:09;101250.94;;;22.35;32.77
28797;BME280;24974;54.444;18.560;2023-04-22T12:04:40;101254.22;;;22.67;32.10
28797;BME280;24974;54.444;18.560;2023-04-22T12:07:11;101251.88;;;22.20;32.67
28797;BME280;24974;54.444;18.560;2023-04-22T12:09:42;101253.38;;;22.89;31.82
28797;BME280;24974;54.444;18.560;2023-04-22T12:12:13;101251.34;;;22.86;31.40
28797;BME280;24974;54.444;18.560;2023-04-22T12:14:44;101255.38;;;22.63;31.97
28797;BME280;24974;54.444;18.560;2023-04-22T12:17:22;101241.72;;;21.89;32.75
28797;BME280;24974;54.444;18.560;2023-04-22T12:19:54;101239.56;;;22.24;32.22
28797;BME280;24974;54.444;18.560;2023-04-22T12:22:26;101227.53;;;22.77;31.85
28797;BME280;24974;54.444;18.560;2023-04-22T12:24:58;101236.75;;;23.04;31.73
28797;BME280;24974;54.444;18.560;2023-04-22T12:27:29;101237.28;;;23.50;30.06
28797;BME280;24974;54.444;18.560;2023-04-22T12:30:02;101230.09;;;21.64;33.30
28797;BME280;24974;54.444;18.560;2023-04-22T12:32:33;101234.56;;;22.37;32.00
28797;BME280;24974;54.444;18.560;2023-04-22T12:35:04;101231.06;;;23.00;31.01
28797;BME280;24974;54.444;18.560;2023-04-22T12:37:37;101226.75;;;21.77;32.84
28797;BME280;24974;54.444;18.560;2023-04-22T12:40:08;101226.06;;;22.30;31.15
28797;BME280;24974;54.444;18.560;2023-04-22T12:42:40;101223.16;;;23.09;30.88
28797;BME280;24974;54.444;18.560;2023-04-22T12:45:11;101215.72;;;22.87;31.17
28797;BME280;24974;54.444;18.560;2023-04-22T12:47:42;101209.78;;;22.66;31.89
28797;BME280;24974;54.444;18.560;2023-04-22T12:50:14;101211.50;;;23.04;31.36
28797;BME280;24974;54.444;18.560;2023-04-22T12:52:45;101205.13;;;22.47;31.71
28797;BME280;24974;54.444;18.560;2023-04-22T12:55:16;101208.53;;;22.37;31.86
28797;BME280;24974;54.444;18.560;2023-04-22T12:57:48;101197.00;;;22.68;31.60
28797;BME280;24974;54.444;18.560;2023-04-22T13:00:22;101198.38;;;22.51;32.05
28797;BME280;24974;54.444;18.560;2023-04-22T13:02:54;101192.78;;;22.25;32.92
28797;BME280;24974;54.444;18.560;2023-04-22T13:05:25;101194.13;;;22.91;32.08
28797;BME280;24974;54.444;18.560;2023-04-22T13:07:55;101191.44;;;22.72;32.29
28797;BME280;24974;54.444;18.560;2023-04-22T13:10:27;101183.72;;;22.35;31.92
28797;BME280;24974;54.444;18.560;2023-04-22T13:12:58;101190.28;;;23.03;31.95
28797;BME280;24974;54.444;18.560;2023-04-22T13:15:29;101183.84;;;22.42;31.07
28797;BME280;24974;54.444;18.560;2023-04-22T13:18:01;101185.44;;;22.43;32.09
28797;BME280;24974;54.444;18.560;2023-04-22T13:20:32;101187.56;;;22.00;34.13
28797;BME280;24974;54.444;18.560;2023-04-22T13:23:02;101176.03;;;22.05;33.92